Time;durP1;ratioP1;P1;durP2;ratioP2;P2;SDS_P1;SDS_P2;PMS_P1;PMS_P2;Temp;Humidity;BMP_temperature;BMP_pressure;BME280_temperature;BME280_humidity;BME280_pressure;Samples;Min_cycle;Max_cycle;Signal;HPM_P1;HPM_P2
2023/10/08 00:01:16;;;;;;;1.88;1.27;;;14.10;99.90;;;;;;5106131;27;20051;-87
2023/10/08 00:03:49;;;;;;;1.40;1.30;;;14.10;99.90;;;;;;5097334;28;20048;-86
2023/10/08 00:06:15;;;;;;;1.13;1.08;;;14.00;99.90;;;;;;5082366;28;20131;-85
2023/10/08 00:08:41;;;;;;;2.50;1.30;;;14.00;99.90;;;;;;5079965;28;20056;-87
2023/10/08 00:11:07;;;;;;;3.20;2.17;;;14.00;99.90;;;;;;5092674;27;20329;-87
2023/10/08 00:13:43;;;;;;;1.48;1.38;;;14.00;99.90;;;;;;5082949;28;20157;-87
2023/10/08 00:16:17;;;;;;;1.42;1.02;;;13.90;99.90;;;;;;5082846;27;20050;-87
2023/10/08 00:18:48;;;;;;;1.17;1.08;;;13.90;99.90;;;;;;5108329;27;20035;-87
2023/10/08 00:23:59;;;;;;;1.73;1.15;;;13.70;99.90;;;;;;5108323;28;20148;-87
2023/10/08 00:26:32;;;;;;;2.58;1.20;;;13.70;99.90;;;;;;5074944;28;20088;-89
2023/10/08 00:29:01;;;;;;;1.30;1.15;;;14.40;99.90;;;;;;5094722;28;20051;-86
2023/10/08 00:31:31;;;;;;;1.10;1.00;;;13.90;99.90;;;;;;5108815;28;20039;-87
2023/10/08 00:33:57;;;;;;;1.48;1.17;;;13.70;99.90;;;;;;5092501;28;20078;-87
2023/10/08 00:36:23;;;;;;;1.80;1.23;;;13.70;99.90;;;;;;5075143;28;20079;-87
2023/10/08 00:38:53;;;;;;;2.30;1.13;;;13.70;99.90;;;;;;5091337;28;20877;-87
2023/10/08 00:41:21;;;;;;;1.52;1.17;;;13.70;99.90;;;;;;5107598;27;20047;-87
2023/10/08 00:43:48;;;;;;;2.35;1.00;;;13.70;99.90;;;;;;5090485;28;20084;-87
2023/10/08 00:46:30;;;;;;;0.90;0.90;;;13.70;99.90;;;;;;5092310;28;20100;-87
2023/10/08 00:49:18;;;;;;;1.58;1.10;;;13.70;99.90;;;;;;5085490;27;20535;-88
2023/10/08 00:51:45;;;;;;;1.70;1.15;;;13.50;99.90;;;;;;5085425;28;20044;-87
2023/10/08 00:54:17;;;;;;;1.55;1.35;;;13.60;99.90;;;;;;5101954;27;20052;-87
2023/10/08 00:56:53;;;;;;;2.58;1.30;;;13.50;99.90;;;;;;5093948;27;20047;-87
2023/10/08 00:59:23;;;;;;;1.98;1.30;;;14.10;99.90;;;;;;5082304;28;20134;-87
2023/10/08 01:02:14;;;;;;;1.52;1.42;;;14.10;99.90;;;;;;5097323;28;20047;-87
2023/10/08 01:04:40;;;;;;;1.23;1.13;;;13.50;99.90;;;;;;5090201;28;20058;-87
2023/10/08 01:07:18;;;;;;;2.35;1.70;;;14.30;99.90;;;;;;5102027;27;20054;-86
2023/10/08 01:09:49;;;;;;;1.80;1.60;;;13.90;99.90;;;;;;5103620;27;20767;-86
2023/10/08 01:12:21;;;;;;;1.35;1.17;;;13.40;99.90;;;;;;5095681;28;20347;-87
2023/10/08 01:14:48;;;;;;;1.65;1.45;;;13.40;99.90;;;;;;5091857;28;20117;-87
2023/10/08 01:17:16;;;;;;;2.70;1.60;;;13.50;99.90;;;;;;5092739;28;20056;-87
2023/10/08 01:19:56;;;;;;;2.30;1.40;;;13.50;99.90;;;;;;5085059;28;20129;-89
2023/10/08 01:22:22;;;;;;;1.92;1.33;;;14.30;99.90;;;;;;5095794;28;20075;-87
2023/10/08 01:24:49;;;;;;;1.70;1.60;;;13.40;99.90;;;;;;5089328;28;20074;-88
2023/10/08 01:27:23;;;;;;;1.30;1.20;;;13.40;99.90;;;;;;5086814;28;20039;-87
2023/10/08 01:29:51;;;;;;;2.38;1.20;;;13.40;99.90;;;;;;5089478;28;20051;-88
2023/10/08 01:32:19;;;;;;;1.55;1.38;;;13.70;99.90;;;;;;5091642;28;20043;-88
2023/10/08 01:34:45;;;;;;;1.98;1.15;;;14.10;99.90;;;;;;5102355;28;20143;-88
2023/10/08 01:37:18;;;;;;;2.05;1.20;;;14.00;99.90;;;;;;5081436;28;20044;-87
2023/10/08 01:39:49;;;;;;;1.88;1.13;;;13.80;99.90;;;;;;5091925;28;20040;-88
2023/10/08 01:42:22;;;;;;;1.38;1.10;;;13.30;99.90;;;;;;5096551;28;20043;-87
2023/10/08 01:44:50;;;;;;;1.85;1.23;;;13.30;99.90;;;;;;5098326;28;20052;-87
2023/10/08 01:47:16;;;;;;;1.25;1.02;;;13.30;99.90;;;;;;5079410;28;20525;-87
2023/10/08 01:49:49;;;;;;;1.33;1.00;;;13.90;99.90;;;;;;5076735;28;20031;-87
2023/10/08 01:52:21;;;;;;;1.60;1.13;;;13.30;99.90;;;;;;5096303;28;20055;-88
2023/10/08 01:54:48;;;;;;;2.40;1.33;;;13.30;99.90;;;;;;5094715;28;20096;-87
2023/10/08 01:57:14;;;;;;;2.13;1.00;;;13.30;99.90;;;;;;5081782;28;20044;-87
2023/10/08 01:59:40;;;;;;;1.58;1.00;;;13.30;99.90;;;;;;5098074;28;20048;-87
2023/10/08 02:02:06;;;;;;;1.15;1.05;;;13.40;99.90;;;;;;5081736;28;20521;-88
2023/10/08 02:04:36;;;;;;;1.38;1.00;;;13.40;99.90;;;;;;5099244;28;20073;-87
2023/10/08 02:07:12;;;;;;;1.50;1.10;;;13.70;99.90;;;;;;5073925;28;20043;-88
2023/10/08 02:09:41;;;;;;;1.05;1.00;;;13.60;99.90;;;;;;5091908;28;20151;-87
2023/10/08 02:12:08;;;;;;;1.35;1.13;;;14.00;99.90;;;;;;5088712;28;20486;-87
2023/10/08 02:14:35;;;;;;;1.25;1.00;;;13.40;99.90;;;;;;5076277;28;20494;-87
2023/10/08 02:17:05;;;;;;;0.93;0.80;;;13.40;99.90;;;;;;5090793;28;20526;-87
2023/10/08 02:19:32;;;;;;;1.00;0.95;;;13.60;99.90;;;;;;5075456;28;20043;-87
2023/10/08 02:21:58;;;;;;;2.70;1.30;;;13.90;99.90;;;;;;5075643;28;20058;-87
2023/10/08 02:24:24;;;;;;;2.20;1.23;;;13.30;99.90;;;;;;5077012;27;20051;-86
2023/10/08 02:26:54;;;;;;;2.55;0.80;;;13.40;99.90;;;;;;5083135;28;20039;-86
2023/10/08 02:29:21;;;;;;;1.20;0.90;;;13.40;99.90;;;;;;5076521;28;20126;-87
2023/10/08 02:31:47;;;;;;;1.20;1.10;;;13.40;99.90;;;;;;5090484;27;20047;-87
2023/10/08 02:34:13;;;;;;;1.33;1.13;;;13.40;99.90;;;;;;5086630;28;20046;-87
2023/10/08 02:36:40;;;;;;;1.98;0.93;;;13.20;99.90;;;;;;5085455;27;20090;-86
2023/10/08 02:39:25;;;;;;;1.35;0.95;;;13.40;99.90;;;;;;5082712;27;20172;-86
2023/10/08 02:41:58;;;;;;;1.33;1.10;;;13.40;99.90;;;;;;5110109;27;20490;-86
2023/10/08 02:44:24;;;;;;;1.17;1.08;;;13.40;99.90;;;;;;5088091;28;20075;-86
2023/10/08 02:46:51;;;;;;;2.13;1.20;;;13.40;99.90;;;;;;5090415;27;20123;-87
2023/10/08 02:49:22;;;;;;;2.63;1.10;;;13.40;99.90;;;;;;5107338;28;20068;-87
2023/10/08 02:51:50;;;;;;;0.87;0.87;;;13.40;99.90;;;;;;5078019;27;20863;-87
2023/10/08 02:54:24;;;;;;;1.83;1.20;;;13.40;99.90;;;;;;5089462;27;21151;-86
2023/10/08 02:56:52;;;;;;;2.75;1.45;;;13.40;99.90;;;;;;5084357;28;20039;-86
2023/10/08 02:59:22;;;;;;;1.50;1.40;;;14.00;99.90;;;;;;5077483;27;20470;-86
2023/10/08 03:01:49;;;;;;;2.50;1.80;;;13.40;99.90;;;;;;5091017;27;20042;-87
2023/10/08 03:04:18;;;;;;;1.70;1.45;;;13.40;99.90;;;;;;5100059;28;20058;-87
2023/10/08 03:06:52;;;;;;;1.55;1.33;;;13.90;99.90;;;;;;5082241;27;20035;-86
2023/10/08 03:09:20;;;;;;;2.92;1.42;;;13.40;99.90;;;;;;5081852;27;20079;-87
2023/10/08 03:11:50;;;;;;;1.88;1.35;;;13.40;99.90;;;;;;5075648;27;20265;-87
2023/10/08 03:14:23;;;;;;;3.00;1.40;;;13.30;99.90;;;;;;5075469;28;20112;-87
2023/10/08 03:17:07;;;;;;;;;;;13.30;99.90;;;;;;5095162;27;20210;-87
2023/10/08 03:19:32;;;;;;;2.63;1.60;;;13.30;99.90;;;;;;5079332;27;20031;-86
2023/10/08 03:21:58;;;;;;;2.08;1.50;;;13.20;99.90;;;;;;5088180;27;20134;-86
2023/10/08 03:24:30;;;;;;;2.85;1.60;;;13.20;99.90;;;;;;5081133;28;20701;-86
2023/10/08 03:27:07;;;;;;;2.13;1.67;;;13.20;99.90;;;;;;5078231;27;20175;-87
2023/10/08 03:29:42;;;;;;;4.45;2.45;;;13.20;99.90;;;;;;5085973;27;20044;-87
2023/10/08 03:32:18;;;;;;;3.72;1.70;;;13.20;99.90;;;;;;5082945;28;20402;-86
2023/10/08 03:34:48;;;;;;;1.92;1.80;;;13.10;99.90;;;;;;5096889;27;20047;-86
2023/10/08 03:37:20;;;;;;;2.38;2.17;;;13.10;99.90;;;;;;5079884;27;20111;-86
2023/10/08 03:40:43;;;;;;;2.80;1.92;;;13.10;99.90;;;;;;5085099;27;20039;-86
2023/10/08 03:42:41;;;;;;;2.50;2.10;;;13.40;99.90;;;;;;5086370;28;20058;-86
2023/10/08 03:45:11;;;;;;;3.53;2.20;;;13.00;99.90;;;;;;5083075;28;20093;-86
2023/10/08 03:47:38;;;;;;;2.33;1.65;;;13.10;99.90;;;;;;5093682;27;20387;-86
2023/10/08 03:50:09;;;;;;;2.45;1.92;;;13.10;99.90;;;;;;5077727;27;20047;-86
2023/10/08 03:52:38;;;;;;;3.35;2.10;;;13.10;99.90;;;;;;5081905;27;20089;-88
2023/10/08 03:57:48;;;;;;;2.88;2.13;;;13.10;99.90;;;;;;5091407;28;20051;-87
2023/10/08 04:00:28;;;;;;;2.65;1.60;;;13.10;99.90;;;;;;5095138;27;20039;-88
2023/10/08 04:02:55;;;;;;;2.58;1.67;;;13.10;99.90;;;;;;5079105;27;20051;-87
2023/10/08 04:05:27;;;;;;;1.50;1.40;;;13.10;99.90;;;;;;5084837;28;20085;-87
2023/10/08 04:11:11;;;;;;;2.15;1.40;;;13.10;99.90;;;;;;5091777;27;20487;-87
2023/10/08 04:13:16;;;;;;;2.83;1.67;;;13.10;99.90;;;;;;5100461;27;20146;-87
2023/10/08 04:15:42;;;;;;;2.50;1.70;;;13.40;99.90;;;;;;5079196;28;20418;-87
2023/10/08 04:18:08;;;;;;;2.97;1.70;;;13.10;99.90;;;;;;5099081;27;20046;-87
2023/10/08 04:21:00;;;;;;;3.53;1.83;;;13.50;99.90;;;;;;5096879;27;20042;-87
2023/10/08 04:23:22;;;;;;;2.80;1.75;;;13.10;99.90;;;;;;5100547;27;20050;-87
2023/10/08 04:25:54;;;;;;;1.75;1.65;;;13.10;99.90;;;;;;5093591;28;20082;-87
2023/10/08 04:28:21;;;;;;;3.20;1.55;;;13.10;99.90;;;;;;5094099;27;20050;-87
2023/10/08 04:30:50;;;;;;;2.10;1.70;;;13.10;99.90;;;;;;5101846;27;20111;-88
2023/10/08 04:33:19;;;;;;;4.20;1.60;;;13.10;99.90;;;;;;5104528;27;20382;-87
2023/10/08 04:35:48;;;;;;;3.08;1.60;;;13.10;99.90;;;;;;5074998;28;20050;-86
2023/10/08 04:38:28;;;;;;;4.43;1.80;;;13.10;99.90;;;;;;5098564;27;20035;-87
2023/10/08 04:40:54;;;;;;;2.38;1.55;;;13.10;99.90;;;;;;5096569;27;20575;-87
2023/10/08 04:43:27;;;;;;;2.85;1.60;;;13.10;99.90;;;;;;5100933;27;20043;-86
2023/10/08 04:46:04;;;;;;;4.15;1.50;;;13.80;99.90;;;;;;5081219;28;20130;-87
2023/10/08 04:48:32;;;;;;;3.78;1.95;;;13.60;99.90;;;;;;5095211;28;20044;-87
2023/10/08 04:50:59;;;;;;;2.38;1.35;;;13.10;99.90;;;;;;5077000;28;20591;-87
2023/10/08 04:53:47;;;;;;;2.15;1.55;;;13.10;99.90;;;;;;5116710;27;20122;-84
2023/10/08 04:56:18;;;;;;;1.98;1.30;;;13.60;99.90;;;;;;5117198;27;20043;-86
2023/10/08 04:58:46;;;;;;;2.33;1.40;;;13.10;99.90;;;;;;5095903;27;20039;-86
2023/10/08 05:01:27;;;;;;;2.30;1.33;;;13.10;99.90;;;;;;5083631;28;20084;-86
2023/10/08 05:08:59;;;;;;;2.88;1.10;;;13.10;99.90;;;;;;5105099;27;20062;-86
2023/10/08 05:11:36;;;;;;;2.90;1.35;;;13.80;99.90;;;;;;5081119;28;20027;-86
2023/10/08 05:14:06;;;;;;;4.25;1.30;;;13.10;99.90;;;;;;5074016;28;20074;-86
2023/10/08 05:16:48;;;;;;;1.80;1.33;;;13.00;99.90;;;;;;5096976;28;20051;-86
2023/10/08 05:19:47;;;;;;;;;;;13.00;99.90;;;;;;5081560;28;20085;-86
2023/10/08 05:30:28;;;;;;;3.75;1.13;;;13.10;99.90;;;;;;5105410;28;20145;-85
2023/10/08 05:35:38;;;;;;;2.15;1.20;;;12.90;99.90;;;;;;5097095;28;20051;-86
2023/10/08 05:38:13;;;;;;;3.17;1.38;;;12.90;99.90;;;;;;5078896;28;20051;-86
2023/10/08 05:46:39;;;;;;;2.65;1.02;;;12.90;99.90;;;;;;5093036;28;20051;-86
2023/10/08 05:59:52;;;;;;;3.08;1.30;;;13.00;99.90;;;;;;5101622;27;20051;-86
2023/10/08 06:02:29;;;;;;;5.10;1.00;;;13.00;99.90;;;;;;5088194;27;20043;-85
2023/10/08 06:08:48;;;;;;;5.13;1.85;;;13.00;99.90;;;;;;5098419;27;20052;-86
2023/10/08 06:13:05;;;;;;;2.95;1.30;;;13.00;99.90;;;;;;5102096;27;20059;-85
2023/10/08 06:15:48;;;;;;;2.15;1.33;;;13.00;99.90;;;;;;5128994;27;20047;-85
2023/10/08 06:18:15;;;;;;;4.40;1.40;;;13.30;99.90;;;;;;5114206;27;20420;-86
2023/10/08 06:20:44;;;;;;;3.42;1.70;;;13.50;99.90;;;;;;5089966;27;20378;-85
2023/10/08 06:23:18;;;;;;;3.53;1.83;;;13.10;99.90;;;;;;5088720;27;20047;-86
2023/10/08 06:25:44;;;;;;;3.97;1.30;;;13.10;99.90;;;;;;5104202;28;20075;-86
2023/10/08 06:28:20;;;;;;;5.63;1.63;;;13.10;99.90;;;;;;5076467;28;20051;-86
2023/10/08 06:30:53;;;;;;;4.18;1.60;;;13.20;99.90;;;;;;5103214;27;20132;-88
2023/10/08 06:33:20;;;;;;;2.95;1.40;;;13.10;99.90;;;;;;5088659;27;20080;-87
2023/10/08 06:36:02;;;;;;;3.85;1.48;;;13.20;99.90;;;;;;5097837;27;20039;-86
2023/10/08 06:38:32;;;;;;;1.55;1.10;;;13.20;99.90;;;;;;5093482;28;20043;-88
2023/10/08 06:44:05;;;;;;;3.85;1.23;;;13.30;99.90;;;;;;5090109;28;20696;-88
2023/10/08 06:46:32;;;;;;;2.03;1.75;;;13.30;99.90;;;;;;5079139;28;20162;-87
2023/10/08 06:49:03;;;;;;;2.40;1.45;;;13.30;99.90;;;;;;5087486;28;20054;-83
2023/10/08 06:51:30;;;;;;;3.97;1.50;;;13.70;99.90;;;;;;5079475;28;20079;-84
2023/10/08 06:53:59;;;;;;;3.33;1.30;;;13.60;99.90;;;;;;5095580;28;20089;-84
2023/10/08 06:56:25;;;;;;;2.75;1.45;;;13.50;99.90;;;;;;5097936;28;20051;-83
2023/10/08 06:58:53;;;;;;;4.85;1.38;;;13.50;99.90;;;;;;5085379;28;20089;-83
2023/10/08 07:01:24;;;;;;;8.98;1.98;;;13.50;99.90;;;;;;5096335;28;20043;-83
2023/10/08 07:03:51;;;;;;;2.42;1.50;;;13.50;99.90;;;;;;5079933;28;20036;-83
2023/10/08 07:06:26;;;;;;;4.05;1.52;;;13.40;99.90;;;;;;5072568;28;20090;-83
2023/10/08 07:08:55;;;;;;;4.15;1.40;;;13.60;99.90;;;;;;5096373;28;20044;-83
2023/10/08 07:11:22;;;;;;;3.42;1.25;;;13.60;99.90;;;;;;5087328;28;20109;-83
2023/10/08 07:13:48;;;;;;;4.03;1.20;;;13.60;99.90;;;;;;5071832;28;20052;-83
2023/10/08 07:16:17;;;;;;;4.13;1.55;;;13.70;99.90;;;;;;5089774;28;20105;-84
2023/10/08 07:18:51;;;;;;;4.88;1.40;;;13.50;99.90;;;;;;5099213;28;20055;-83
2023/10/08 07:21:17;;;;;;;3.03;1.20;;;14.00;99.90;;;;;;5082593;28;20131;-83
2023/10/08 07:23:59;;;;;;;3.08;1.40;;;13.50;99.90;;;;;;5094172;28;20179;-83
2023/10/08 07:26:37;;;;;;;3.55;1.60;;;13.50;99.90;;;;;;5096154;28;20044;-83
2023/10/08 07:29:11;;;;;;;4.03;1.40;;;13.60;99.90;;;;;;5081692;28;20040;-83
2023/10/08 07:31:41;;;;;;;3.33;1.35;;;13.60;99.90;;;;;;5098137;28;20035;-83
2023/10/08 07:34:18;;;;;;;3.42;1.30;;;13.70;99.90;;;;;;5088879;28;20112;-83
2023/10/08 07:36:49;;;;;;;7.35;1.40;;;13.70;99.90;;;;;;5097487;28;20079;-83
2023/10/08 07:41:58;;;;;;;4.13;1.33;;;13.90;99.90;;;;;;5101015;27;20533;-83
2023/10/08 07:44:25;;;;;;;2.53;1.30;;;13.90;99.90;;;;;;5096922;28;20445;-81
2023/10/08 07:46:55;;;;;;;4.68;1.20;;;14.00;99.90;;;;;;5100505;27;20027;-82
2023/10/08 07:49:25;;;;;;;3.45;1.17;;;14.00;99.90;;;;;;5102457;27;20422;-82
2023/10/08 07:51:51;;;;;;;4.07;1.50;;;14.00;99.90;;;;;;5083145;27;20092;-83
2023/10/08 07:54:22;;;;;;;3.30;1.40;;;14.30;99.90;;;;;;5096348;27;20043;-83
2023/10/08 07:56:49;;;;;;;3.47;1.30;;;14.10;99.90;;;;;;5100673;27;20047;-83
2023/10/08 07:59:16;;;;;;;3.70;1.40;;;14.00;99.90;;;;;;5103559;28;20050;-82
2023/10/08 08:01:43;;;;;;;2.90;1.30;;;14.10;99.90;;;;;;5106079;27;20058;-82
2023/10/08 08:04:22;;;;;;;2.88;1.42;;;14.40;99.90;;;;;;5090057;28;20040;-83
2023/10/08 08:06:52;;;;;;;3.30;1.30;;;14.20;99.90;;;;;;5089002;28;20667;-83
2023/10/08 08:09:23;;;;;;;5.68;1.30;;;14.20;99.90;;;;;;5075229;27;20642;-82
2023/10/08 08:11:49;;;;;;;5.90;1.65;;;14.30;99.90;;;;;;5080664;28;20474;-82
2023/10/08 08:14:16;;;;;;;3.83;1.63;;;14.40;99.90;;;;;;5090319;28;20123;-82
2023/10/08 08:16:47;;;;;;;5.70;1.55;;;14.50;99.90;;;;;;5097143;28;20070;-83
2023/10/08 08:19:17;;;;;;;5.60;1.45;;;14.60;99.90;;;;;;5096297;28;20118;-83
2023/10/08 08:21:46;;;;;;;3.83;1.65;;;14.60;99.90;;;;;;5105220;27;20042;-83
2023/10/08 08:24:13;;;;;;;5.43;1.58;;;15.10;99.90;;;;;;5074034;28;20472;-83
2023/10/08 08:27:01;;;;;;;5.32;1.48;;;14.70;99.90;;;;;;5090840;28;20031;-83
2023/10/08 08:29:28;;;;;;;4.55;1.42;;;14.70;99.90;;;;;;5079176;27;20123;-83
2023/10/08 08:31:56;;;;;;;5.68;1.30;;;15.00;99.90;;;;;;5100387;27;20046;-83
2023/10/08 08:34:23;;;;;;;8.20;1.92;;;14.70;99.90;;;;;;5102012;27;20038;-83
2023/10/08 08:36:49;;;;;;;2.45;0.90;;;14.80;99.90;;;;;;5093889;27;20157;-83
2023/10/08 08:39:35;;;;;;;4.40;1.48;;;14.80;99.90;;;;;;5108064;27;20047;-84
2023/10/08 08:42:04;;;;;;;4.95;1.23;;;14.90;99.90;;;;;;5101437;27;20055;-83
2023/10/08 08:44:45;;;;;;;5.40;1.58;;;14.90;99.90;;;;;;5101207;27;20049;-83
2023/10/08 08:47:18;;;;;;;5.45;1.33;;;15.30;99.90;;;;;;5092992;27;20555;-83
2023/10/08 08:49:45;;;;;;;4.90;1.30;;;15.00;99.90;;;;;;5089962;28;20075;-83
2023/10/08 08:52:12;;;;;;;3.85;1.20;;;15.10;99.90;;;;;;5093339;27;20478;-84
2023/10/08 08:54:38;;;;;;;9.00;2.22;;;15.20;99.90;;;;;;5085222;28;20513;-83
2023/10/08 08:57:06;;;;;;;3.38;1.20;;;15.20;99.90;;;;;;5097419;27;20065;-83
2023/10/08 08:59:36;;;;;;;6.93;1.40;;;15.30;99.90;;;;;;5097545;28;20090;-83
2023/10/08 09:02:03;;;;;;;7.30;1.98;;;15.40;99.90;;;;;;5091669;27;20062;-84
2023/10/08 09:04:32;;;;;;;5.47;1.20;;;15.60;99.90;;;;;;5095905;28;20142;-83
2023/10/08 09:07:04;;;;;;;5.00;1.38;;;15.40;99.90;;;;;;5097563;27;20812;-83
2023/10/08 09:09:35;;;;;;;5.65;1.23;;;15.40;99.90;;;;;;5089558;28;20387;-83
2023/10/08 09:12:01;;;;;;;5.65;1.02;;;15.90;99.90;;;;;;5097665;27;20077;-82
2023/10/08 09:14:31;;;;;;;3.45;1.05;;;15.30;99.90;;;;;;5099514;28;20122;-83
2023/10/08 09:16:59;;;;;;;6.07;1.48;;;15.30;99.90;;;;;;5092335;28;20055;-84
2023/10/08 09:19:26;;;;;;;3.78;1.00;;;15.50;99.90;;;;;;5080447;28;20457;-83
2023/10/08 09:22:06;;;;;;;4.53;1.15;;;15.60;99.90;;;;;;5113435;27;20034;-83
2023/10/08 09:24:38;;;;;;;5.05;1.17;;;15.70;99.90;;;;;;5086768;28;20505;-84
2023/10/08 09:27:08;;;;;;;6.72;1.42;;;15.80;99.90;;;;;;5082448;28;20047;-83
2023/10/08 09:29:41;;;;;;;6.22;1.48;;;16.00;99.90;;;;;;5091145;28;20104;-85
2023/10/08 09:32:13;;;;;;;5.35;1.08;;;15.90;99.90;;;;;;5080690;28;20047;-82
2023/10/08 09:34:40;;;;;;;3.83;1.05;;;16.00;99.90;;;;;;5092953;28;20040;-82
2023/10/08 09:37:07;;;;;;;4.35;1.20;;;16.40;99.90;;;;;;5120483;27;20546;-84
2023/10/08 09:39:36;;;;;;;3.75;1.27;;;16.00;99.90;;;;;;5075900;28;20063;-83
2023/10/08 09:42:03;;;;;;;4.85;1.15;;;16.10;99.90;;;;;;5101411;27;20046;-85
2023/10/08 09:44:30;;;;;;;5.55;1.10;;;16.10;99.90;;;;;;5088639;27;20066;-84
2023/10/08 09:47:10;;;;;;;4.20;1.13;;;16.00;99.90;;;;;;5096063;28;20394;-83
2023/10/08 09:50:02;;;;;;;2.67;0.90;;;16.00;99.90;;;;;;5098783;28;20044;-84
2023/10/08 09:52:36;;;;;;;3.47;1.00;;;16.10;99.90;;;;;;5084706;28;20406;-85
2023/10/08 09:55:12;;;;;;;5.18;1.60;;;16.10;99.90;;;;;;5080921;28;20106;-85
2023/10/08 09:57:39;;;;;;;5.40;1.40;;;16.20;99.90;;;;;;5093231;28;20047;-84
2023/10/08 10:00:15;;;;;;;6.25;1.73;;;16.20;99.90;;;;;;5097517;28;20047;-84
2023/10/08 10:02:43;;;;;;;3.70;1.00;;;16.20;99.90;;;;;;5100446;28;20122;-85
2023/10/08 10:05:12;;;;;;;6.28;1.02;;;16.20;99.90;;;;;;5102580;27;20051;-83
2023/10/08 10:07:41;;;;;;;7.28;1.48;;;16.20;99.90;;;;;;5108512;28;20038;-85
2023/10/08 10:10:26;;;;;;;8.15;1.33;;;16.20;99.90;;;;;;5095403;27;20124;-85
2023/10/08 10:12:52;;;;;;;5.80;1.35;;;16.20;99.90;;;;;;5105406;28;20035;-85
2023/10/08 10:15:21;;;;;;;5.68;1.23;;;16.50;99.90;;;;;;5103229;27;20406;-85
2023/10/08 10:17:49;;;;;;;4.75;0.88;;;16.30;99.90;;;;;;5098065;27;20042;-85
2023/10/08 10:20:16;;;;;;;6.13;1.63;;;16.30;99.90;;;;;;5103652;28;20051;-84
2023/10/08 10:22:43;;;;;;;3.80;1.00;;;16.30;99.90;;;;;;5084646;27;20049;-83
2023/10/08 10:25:17;;;;;;;4.90;1.23;;;16.40;99.90;;;;;;5104394;27;20615;-84
2023/10/08 10:28:08;;;;;;;3.45;1.10;;;16.40;99.90;;;;;;5102816;27;20466;-84
2023/10/08 10:30:34;;;;;;;4.07;1.40;;;16.50;99.90;;;;;;5116856;27;20081;-85
2023/10/08 10:33:01;;;;;;;6.38;1.52;;;16.90;99.90;;;;;;5102864;27;20390;-86
2023/10/08 10:35:27;;;;;;;6.28;1.42;;;16.70;99.90;;;;;;5080500;27;20076;-85
2023/10/08 10:38:03;;;;;;;5.10;1.15;;;16.80;99.90;;;;;;5097556;27;20043;-86
2023/10/08 10:40:38;;;;;;;5.75;1.30;;;16.80;99.90;;;;;;5101451;27;20430;-85
2023/10/08 10:43:10;;;;;;;4.68;1.20;;;16.80;99.90;;;;;;5090047;27;20478;-87
2023/10/08 10:45:36;;;;;;;5.38;1.15;;;16.70;99.90;;;;;;5109009;27;20041;-86
2023/10/08 10:53:55;;;;;;;6.60;1.77;;;16.70;99.90;;;;;;5112003;27;20087;-85
2023/10/08 10:56:29;;;;;;;4.32;1.23;;;16.30;99.90;;;;;;5081640;27;20566;-86
2023/10/08 10:59:15;;;;;;;7.32;1.60;;;16.40;99.90;;;;;;5081728;28;20051;-86
2023/10/08 11:01:52;;;;;;;6.15;1.40;;;16.50;99.90;;;;;;5082393;27;20079;-85
2023/10/08 11:04:28;;;;;;;8.43;1.70;;;17.00;99.90;;;;;;5103145;27;20040;-86
2023/10/08 11:06:58;;;;;;;6.13;1.65;;;16.60;99.90;;;;;;5098724;27;20047;-86
2023/10/08 11:09:37;;;;;;;7.43;1.50;;;16.70;99.90;;;;;;5083789;27;20492;-86
2023/10/08 11:12:10;;;;;;;5.05;1.55;;;16.80;99.90;;;;;;5100417;28;20047;-87
2023/10/08 11:14:41;;;;;;;4.97;1.17;;;16.70;99.90;;;;;;5084246;27;20088;-86
2023/10/08 11:17:15;;;;;;;5.90;1.50;;;17.30;99.90;;;;;;5085146;27;20035;-86
2023/10/08 11:19:48;;;;;;;4.20;1.38;;;16.90;99.90;;;;;;5102931;27;20049;-85
2023/10/08 11:22:18;;;;;;;5.43;1.80;;;17.00;99.90;;;;;;5080549;27;20036;-86
2023/10/08 11:24:47;;;;;;;4.88;1.20;;;17.10;99.90;;;;;;5083338;27;20039;-86
2023/10/08 11:27:17;;;;;;;5.72;1.50;;;17.10;99.90;;;;;;5108900;27;20046;-87
2023/10/08 11:29:47;;;;;;;5.15;1.35;;;17.20;99.90;;;;;;5106118;27;20083;-88
2023/10/08 11:32:19;;;;;;;7.68;1.48;;;17.30;99.90;;;;;;5087890;27;20040;-89
2023/10/08 11:34:50;;;;;;;4.18;1.33;;;17.20;99.90;;;;;;5093995;27;20050;-88
2023/10/08 11:37:35;;;;;;;4.43;1.30;;;17.30;99.90;;;;;;5109469;27;20119;-88
2023/10/08 11:40:16;;;;;;;4.65;1.30;;;17.30;99.90;;;;;;5103959;27;20052;-89
2023/10/08 11:42:43;;;;;;;5.20;1.33;;;17.20;99.90;;;;;;5110968;28;20040;-88
2023/10/08 11:45:23;;;;;;;6.65;1.48;;;17.30;99.90;;;;;;5105639;27;20096;-90
2023/10/08 11:47:57;;;;;;;5.93;1.23;;;17.20;99.90;;;;;;5086543;27;20054;-90
2023/10/08 11:50:30;;;;;;;3.58;1.20;;;18.00;99.90;;;;;;5087167;27;20088;-89
2023/10/08 11:53:05;;;;;;;7.03;1.50;;;17.90;99.90;;;;;;5084689;27;20179;-90
2023/10/08 11:55:38;;;;;;;3.70;1.10;;;17.70;99.90;;;;;;5081050;27;20126;-88
2023/10/08 11:58:11;;;;;;;5.70;1.20;;;17.90;99.90;;;;;;5082180;27;20489;-89
2023/10/08 12:00:44;;;;;;;5.90;1.30;;;17.90;99.90;;;;;;5080719;28;20060;-88
2023/10/08 12:03:11;;;;;;;5.68;1.17;;;18.10;99.90;;;;;;5107095;27;20813;-89
2023/10/08 12:05:47;;;;;;;4.07;1.15;;;18.10;99.90;;;;;;5083438;27;20355;-88
2023/10/08 12:08:16;;;;;;;5.95;1.70;;;18.20;99.90;;;;;;5090651;27;20039;-88
2023/10/08 12:10:49;;;;;;;5.50;1.20;;;18.30;99.90;;;;;;5081929;28;20044;-91
2023/10/08 12:13:28;;;;;;;7.00;1.50;;;18.40;99.90;;;;;;5084558;28;20055;-91
2023/10/08 12:16:12;;;;;;;4.10;1.27;;;18.90;99.90;;;;;;5096351;27;20089;-90
2023/10/08 12:18:43;;;;;;;4.43;1.60;;;18.20;99.90;;;;;;5090382;27;20085;-90
2023/10/08 12:21:15;;;;;;;4.13;1.20;;;18.00;99.90;;;;;;5085592;27;20040;-93
2023/10/08 12:23:49;;;;;;;5.18;1.55;;;17.90;99.90;;;;;;5089403;28;20111;-90
2023/10/08 12:26:19;;;;;;;7.22;1.33;;;17.90;99.90;;;;;;5082999;27;20060;-87
2023/10/08 12:28:50;;;;;;;3.67;1.70;;;17.90;99.90;;;;;;5109286;27;20119;-92
2023/10/08 12:31:24;;;;;;;4.70;1.17;;;17.90;99.90;;;;;;5083417;28;20065;-92
2023/10/08 12:34:00;;;;;;;3.55;1.08;;;18.00;99.90;;;;;;5080183;27;20048;-87
2023/10/08 12:36:32;;;;;;;7.93;2.10;;;17.90;99.90;;;;;;5081916;28;20059;-86
2023/10/08 12:38:58;;;;;;;5.20;1.45;;;17.80;99.90;;;;;;5102652;27;20071;-86
2023/10/08 12:41:26;;;;;;;4.80;1.40;;;17.70;99.90;;;;;;5087504;28;20928;-86
2023/10/08 12:43:53;;;;;;;4.05;1.33;;;17.70;99.90;;;;;;5090641;27;20067;-85
2023/10/08 12:46:23;;;;;;;4.43;1.40;;;17.70;99.90;;;;;;5111454;27;20074;-86
2023/10/08 12:48:53;;;;;;;3.13;1.08;;;17.80;99.90;;;;;;5102898;27;20502;-86
2023/10/08 12:51:23;;;;;;;6.43;1.50;;;17.70;99.90;;;;;;5095528;28;20043;-87
2023/10/08 12:53:58;;;;;;;4.78;1.63;;;18.20;99.90;;;;;;5109638;27;20067;-86
2023/10/08 12:56:31;;;;;;;7.22;1.58;;;17.80;99.90;;;;;;5079964;28;20036;-86
2023/10/08 12:58:58;;;;;;;6.13;1.73;;;17.60;99.90;;;;;;5106597;27;20439;-86
2023/10/08 13:01:23;;;;;;;6.93;1.52;;;17.60;99.90;;;;;;5083008;28;20035;-85
2023/10/08 13:03:49;;;;;;;7.32;1.60;;;17.60;99.90;;;;;;5106038;27;20035;-86
2023/10/08 13:06:22;;;;;;;5.07;1.25;;;18.00;99.90;;;;;;5098543;28;20035;-86
2023/10/08 13:08:52;;;;;;;7.70;1.20;;;17.40;99.90;;;;;;5100456;28;20506;-85
2023/10/08 13:11:22;;;;;;;6.43;1.30;;;17.40;99.90;;;;;;5091009;28;20050;-84
2023/10/08 13:13:51;;;;;;;3.95;1.20;;;17.30;99.90;;;;;;5092130;28;20043;-86
2023/10/08 13:16:18;;;;;;;5.20;1.33;;;17.20;99.90;;;;;;5083209;28;20035;-86
2023/10/08 13:18:44;;;;;;;10.27;1.42;;;17.20;99.90;;;;;;5093590;28;20063;-86
2023/10/08 13:21:10;;;;;;;4.07;1.30;;;17.30;99.90;;;;;;5085374;28;20134;-86
2023/10/08 13:23:36;;;;;;;5.95;1.77;;;17.20;99.90;;;;;;5102623;28;20095;-85
2023/10/08 13:26:06;;;;;;;5.80;1.48;;;17.20;99.90;;;;;;5102457;28;20046;-85
2023/10/08 13:28:33;;;;;;;8.77;1.65;;;17.30;99.90;;;;;;5095195;28;20051;-85
2023/10/08 13:31:00;;;;;;;4.38;1.10;;;17.60;99.90;;;;;;5111346;28;20391;-86
2023/10/08 13:33:26;;;;;;;7.00;1.73;;;17.50;99.90;;;;;;5081042;28;20043;-86
2023/10/08 13:35:53;;;;;;;6.22;1.48;;;17.60;99.90;;;;;;5103964;28;20045;-87
2023/10/08 13:38:19;;;;;;;4.65;1.30;;;17.70;99.90;;;;;;5082837;28;20082;-86
2023/10/08 13:41:02;;;;;;;5.40;1.90;;;17.70;99.90;;;;;;5075056;28;20063;-86
2023/10/08 13:43:33;;;;;;;;;;;17.70;99.90;;;;;;5099807;28;20103;-86
2023/10/08 13:46:04;;;;;;;5.40;1.92;;;17.60;99.90;;;;;;5077025;28;20010;-86
2023/10/08 13:48:35;;;;;;;5.82;1.40;;;17.70;99.90;;;;;;5099907;28;20031;-85
2023/10/08 13:51:05;;;;;;;8.95;1.60;;;17.60;99.90;;;;;;5091686;28;20514;-86
2023/10/08 13:53:36;;;;;;;7.03;1.88;;;17.50;99.90;;;;;;5106350;28;20036;-86
2023/10/08 13:56:04;;;;;;;8.13;1.48;;;17.50;99.90;;;;;;5099203;28;20051;-86
2023/10/08 13:58:40;;;;;;;7.15;1.88;;;17.40;99.90;;;;;;5092001;28;20494;-86
2023/10/08 14:01:18;;;;;;;3.90;1.30;;;17.30;99.90;;;;;;5093026;28;20054;-86
2023/10/08 14:03:53;;;;;;;3.58;1.27;;;17.30;99.90;;;;;;5092327;28;20040;-86
2023/10/08 14:06:21;;;;;;;4.55;1.17;;;17.30;99.90;;;;;;5092551;28;20051;-86